Time;durP1;ratioP1;P1;durP2;ratioP2;P2;SDS_P1;SDS_P2;PMS_P1;PMS_P2;Temp;Humidity;BMP_temperature;BMP_pressure;BME280_temperature;BME280_humidity;BME280_pressure;Samples;Min_cycle;Max_cycle;Signal;HPM_P1;HPM_P2
2023/01/05 00:02:07;;;;;;;33.88;7.57;;;;;;;10.36;100.00;101502.34;4971338;28;20058;-70
2023/01/05 00:04:32;;;;;;;31.17;7.03;;;;;;;10.33;100.00;101494.63;4974297;28;20027;-71
2023/01/05 00:06:57;;;;;;;34.30;6.72;;;;;;;10.26;100.00;101488.34;4974521;28;20037;-71
2023/01/05 00:09:23;;;;;;;32.85;6.72;;;;;;;10.26;100.00;101500.00;4974117;28;20418;-71
2023/01/05 00:22:57;;;;;;;31.70;7.55;;;;;;;10.18;100.00;101512.91;4974109;28;20050;-71
2023/01/05 00:25:25;;;;;;;29.85;6.72;;;;;;;10.15;100.00;101505.22;4974305;28;20031;-73
2023/01/05 00:27:52;;;;;;;39.28;7.72;;;;;;;10.17;100.00;101512.06;4973869;28;20490;-71
2023/01/05 00:30:20;;;;;;;31.50;7.32;;;;;;;10.13;100.00;101515.38;4973128;28;20034;-71
2023/01/05 00:32:46;;;;;;;31.38;6.65;;;;;;;10.10;100.00;101512.06;4972553;28;20110;-71
2023/01/05 00:35:13;;;;;;;35.88;7.07;;;;;;;10.09;100.00;101515.78;4974381;28;20062;-71
2023/01/05 00:37:39;;;;;;;41.47;7.75;;;;;;;10.07;100.00;101509.78;4974135;28;20374;-71
2023/01/05 00:40:06;;;;;;;33.78;7.55;;;;;;;10.06;100.00;101509.97;4974007;28;20030;-71
2023/01/05 00:42:31;;;;;;;28.73;5.85;;;;;;;10.02;100.00;101509.53;4973659;28;20545;-71
2023/01/05 00:44:56;;;;;;;32.50;6.90;;;;;;;10.00;100.00;101510.81;4972956;28;20022;-71
2023/01/05 00:47:22;;;;;;;33.17;7.28;;;;;;;10.01;100.00;101512.44;4973332;28;20043;-71
2023/01/05 00:49:47;;;;;;;37.53;7.10;;;;;;;9.98;100.00;101511.00;4972930;28;20058;-71
2023/01/05 00:52:12;;;;;;;33.50;6.95;;;;;;;9.97;100.00;101516.63;4973835;28;20105;-71
2023/01/05 00:54:38;;;;;;;31.90;6.45;;;;;;;9.90;100.00;101508.47;4972129;28;20105;-71
2023/01/05 00:57:05;;;;;;;29.00;6.93;;;;;;;9.88;100.00;101507.84;4973409;28;20110;-71
2023/01/05 00:59:31;;;;;;;33.92;6.57;;;;;;;9.85;100.00;101508.25;4972639;28;20031;-71
2023/01/05 01:01:56;;;;;;;34.38;7.55;;;;;;;9.82;100.00;101514.91;4971083;28;20034;-71
2023/01/05 01:04:21;;;;;;;30.35;6.47;;;;;;;9.79;100.00;101514.50;4973507;28;20026;-71
2023/01/05 01:06:48;;;;;;;30.58;6.55;;;;;;;9.75;100.00;101514.91;4973278;28;20058;-71
2023/01/05 01:09:13;;;;;;;29.85;6.25;;;;;;;9.70;100.00;101520.06;4972208;28;20027;-71
2023/01/05 01:11:39;;;;;;;32.63;6.75;;;;;;;9.71;100.00;101524.44;4971398;28;20085;-71
2023/01/05 01:14:06;;;;;;;35.63;7.22;;;;;;;9.64;100.00;101526.28;4971684;28;20038;-71
2023/01/05 01:16:32;;;;;;;30.65;6.82;;;;;;;9.63;100.00;101524.63;4973220;28;20552;-71
2023/01/05 01:18:58;;;;;;;37.78;7.20;;;;;;;9.60;100.00;101519.59;4973257;28;20034;-71
2023/01/05 01:21:23;;;;;;;34.67;6.97;;;;;;;9.61;100.00;101520.47;4973084;28;20034;-71
2023/01/05 01:23:48;;;;;;;36.72;7.32;;;;;;;9.55;100.00;101533.72;4973177;28;20053;-71
2023/01/05 01:26:14;;;;;;;33.53;6.80;;;;;;;9.53;100.00;101534.97;4973339;28;20033;-71
2023/01/05 01:28:40;;;;;;;34.22;7.10;;;;;;;9.55;100.00;101541.00;4972431;28;20463;-71
2023/01/05 01:31:05;;;;;;;33.13;6.93;;;;;;;9.51;100.00;101539.72;4971979;28;20059;-71
2023/01/05 01:33:31;;;;;;;36.80;7.40;;;;;;;9.50;100.00;101532.69;4973057;28;20459;-71
2023/01/05 01:35:57;;;;;;;34.78;7.60;;;;;;;9.46;100.00;101543.03;4973051;28;20035;-71
2023/01/05 01:38:23;;;;;;;30.45;6.22;;;;;;;9.42;100.00;101540.94;4975501;28;20489;-71
2023/01/05 01:40:49;;;;;;;34.78;7.03;;;;;;;9.42;100.00;101546.34;4975700;28;20031;-71
2023/01/05 01:43:18;;;;;;;32.80;6.93;;;;;;;9.44;100.00;101549.69;4977185;28;20037;-71
2023/01/05 01:45:44;;;;;;;37.58;6.93;;;;;;;9.46;100.00;101550.31;4976100;28;20549;-71
2023/01/05 01:48:13;;;;;;;35.20;7.18;;;;;;;9.46;100.00;101545.72;4977569;28;20031;-71
2023/01/05 01:50:52;;;;;;;35.28;7.10;;;;;;;9.49;100.00;101552.63;4975966;28;20030;-71
2023/01/05 01:53:24;;;;;;;34.70;7.38;;;;;;;9.44;100.00;101555.91;4977450;28;20628;-71
2023/01/05 01:55:51;;;;;;;;;;;;;;;9.56;100.00;101564.28;4977347;28;20034;-71
2023/01/05 01:58:18;;;;;;;32.08;7.35;;;;;;;9.48;100.00;101553.63;4976053;28;20344;-71
2023/01/05 02:00:45;;;;;;;32.47;6.88;;;;;;;9.45;100.00;101557.59;4975008;28;20034;-71
2023/01/05 02:03:11;;;;;;;35.90;6.72;;;;;;;9.50;100.00;101565.09;4977149;28;20546;-71
2023/01/05 02:05:36;;;;;;;35.78;7.20;;;;;;;9.55;100.00;101559.91;4976927;28;20070;-71
2023/01/05 02:08:02;;;;;;;34.38;7.00;;;;;;;9.52;100.00;101558.44;4976414;28;20088;-71
2023/01/05 02:10:51;;;;;;;34.08;7.70;;;;;;;9.59;100.00;101563.91;4972781;28;20162;-72
2023/01/05 02:13:37;;;;;;;33.75;7.45;;;;;;;9.59;100.00;101569.28;4975197;28;20070;-71
2023/01/05 02:16:27;;;;;;;35.42;6.88;;;;;;;9.55;100.00;101565.31;4977059;28;20455;-71
2023/01/05 02:19:29;;;;;;;35.03;7.18;;;;;;;9.62;100.00;101568.91;4976843;28;20040;-71
2023/01/05 02:22:49;;;;;;;37.63;6.88;;;;;;;9.58;100.00;101562.22;4975544;28;20462;-71
2023/01/05 02:25:45;;;;;;;34.45;6.57;;;;;;;9.62;100.00;101568.03;4935774;29;20043;-71
2023/01/05 02:28:27;;;;;;;31.55;7.03;;;;;;;9.61;100.00;101569.09;4976230;28;20042;-71
2023/01/05 02:31:05;;;;;;;33.92;7.28;;;;;;;9.60;100.00;101570.94;4974911;28;20069;-71
2023/01/05 02:33:40;;;;;;;34.53;6.45;;;;;;;9.66;100.00;101575.56;4976759;28;20422;-71
2023/01/05 02:36:20;;;;;;;32.92;7.30;;;;;;;9.64;100.00;101577.63;4975206;28;20035;-71
2023/01/05 02:38:52;;;;;;;35.00;7.63;;;;;;;9.68;100.00;101565.38;4976794;28;20038;-72
2023/01/05 02:41:28;;;;;;;36.58;7.40;;;;;;;9.65;100.00;101573.06;4976545;28;20034;-72
2023/01/05 02:43:56;;;;;;;34.28;7.32;;;;;;;9.66;100.00;101580.97;4976016;28;20035;-72
2023/01/05 02:46:21;;;;;;;35.50;8.02;;;;;;;9.68;100.00;101573.50;4976312;28;20498;-72
2023/01/05 02:48:49;;;;;;;35.20;7.43;;;;;;;9.72;100.00;101580.16;4974043;28;20058;-72
2023/01/05 02:51:20;;;;;;;33.38;7.80;;;;;;;9.75;100.00;101579.75;4974360;28;20084;-72
2023/01/05 02:53:52;;;;;;;30.92;6.65;;;;;;;9.78;100.00;101577.69;4975654;28;20030;-72
2023/01/05 02:56:25;;;;;;;34.63;6.70;;;;;;;9.74;100.00;101578.09;4975903;28;20035;-71
2023/01/05 02:58:57;;;;;;;39.35;8.35;;;;;;;9.75;100.00;101568.94;4975958;28;20366;-72
2023/01/05 03:01:31;;;;;;;31.77;7.32;;;;;;;9.78;100.00;101577.69;4974173;28;20030;-71
2023/01/05 03:04:04;;;;;;;36.00;7.43;;;;;;;9.76;100.00;101586.00;4974961;28;20035;-72
2023/01/05 03:06:37;;;;;;;34.08;7.00;;;;;;;9.78;100.00;101583.09;4976064;28;20030;-72
2023/01/05 03:09:05;;;;;;;28.60;6.95;;;;;;;9.79;100.00;101585.59;4974058;28;20041;-72
2023/01/05 03:14:38;;;;;;;30.13;6.15;;;;;;;9.84;100.00;101582.28;4975742;28;20403;-72
2023/01/05 03:17:07;;;;;;;32.67;7.25;;;;;;;9.81;100.00;101588.09;4975918;28;20117;-72
2023/01/05 03:19:35;;;;;;;32.38;6.97;;;;;;;9.82;100.00;101589.78;4973711;28;20038;-72
2023/01/05 03:36:03;;;;;;;33.30;6.32;;;;;;;9.87;100.00;101596.25;4974832;28;20163;-72
2023/01/05 03:38:43;;;;;;;32.88;6.93;;;;;;;9.90;100.00;101589.56;4975257;28;20123;-69
2023/01/05 03:41:11;;;;;;;35.58;7.18;;;;;;;9.92;100.00;101601.88;4975417;28;20031;-69
2023/01/05 03:43:37;;;;;;;33.70;6.40;;;;;;;9.89;100.00;101591.47;4973836;28;20043;-69
2023/01/05 03:46:10;;;;;;;31.40;6.57;;;;;;;9.93;100.00;101594.59;4973297;28;20058;-71
2023/01/05 03:48:36;;;;;;;31.48;6.82;;;;;;;9.99;100.00;101595.66;4975307;28;20171;-71
2023/01/05 03:51:01;;;;;;;34.45;6.10;;;;;;;9.96;100.00;101596.88;4975084;28;20503;-71
2023/01/05 03:53:26;;;;;;;34.13;7.30;;;;;;;9.96;100.00;101601.47;4974936;28;20423;-71
2023/01/05 03:55:52;;;;;;;34.30;6.78;;;;;;;9.97;100.00;101598.56;4974617;28;20035;-71
2023/01/05 03:58:17;;;;;;;34.28;6.65;;;;;;;9.98;100.00;101605.63;4975174;28;20031;-71
2023/01/05 04:00:42;;;;;;;33.67;6.32;;;;;;;10.00;100.00;101603.56;4971210;28;20023;-71
2023/01/05 04:03:09;;;;;;;30.63;6.63;;;;;;;10.02;100.00;101601.47;4973793;28;20034;-71
2023/01/05 04:05:35;;;;;;;32.33;6.97;;;;;;;10.03;100.00;101600.44;4974922;28;20039;-71
2023/01/05 04:08:00;;;;;;;31.17;6.20;;;;;;;10.04;100.00;101610.22;4974644;28;20037;-71
2023/01/05 04:10:25;;;;;;;30.40;6.57;;;;;;;10.03;100.00;101605.03;4974578;28;20041;-71
2023/01/05 04:12:50;;;;;;;31.67;6.55;;;;;;;10.08;100.00;101600.69;4974654;28;20118;-71
2023/01/05 04:15:16;;;;;;;32.22;6.93;;;;;;;10.07;100.00;101600.88;4973657;28;20101;-71
2023/01/05 04:17:41;;;;;;;39.50;7.35;;;;;;;10.06;100.00;101596.50;4974533;28;20038;-71
2023/01/05 04:20:07;;;;;;;32.35;6.63;;;;;;;10.08;100.00;101600.69;4973106;28;20539;-71
2023/01/05 04:22:32;;;;;;;32.90;6.97;;;;;;;10.03;100.00;101605.84;4974946;28;20026;-71
2023/01/05 04:24:57;;;;;;;32.30;6.78;;;;;;;10.04;100.00;101610.22;4971956;28;20080;-71
2023/01/05 04:27:23;;;;;;;33.63;6.78;;;;;;;10.06;100.00;101608.16;4974597;28;20027;-71
2023/01/05 04:29:48;;;;;;;34.30;6.63;;;;;;;10.03;100.00;101607.72;4973589;28;20378;-71
2023/01/05 04:32:13;;;;;;;41.42;8.02;;;;;;;10.02;100.00;101608.75;4974471;28;20447;-71
2023/01/05 04:34:38;;;;;;;40.08;7.90;;;;;;;10.02;100.00;101598.75;4974473;28;20035;-71
2023/01/05 04:37:04;;;;;;;32.25;7.45;;;;;;;10.01;100.00;101604.38;4974165;28;20077;-71
2023/01/05 04:39:29;;;;;;;33.70;7.40;;;;;;;10.02;100.00;101606.88;4974360;28;20475;-71
2023/01/05 04:41:54;;;;;;;34.00;6.63;;;;;;;10.01;100.00;101607.94;4974146;28;20034;-71
2023/01/05 04:44:20;;;;;;;34.95;7.07;;;;;;;10.02;100.00;101603.34;4972640;28;20047;-71
2023/01/05 04:46:45;;;;;;;34.95;7.25;;;;;;;10.01;100.00;101612.50;4971782;28;20054;-71
2023/01/05 04:49:10;;;;;;;33.28;7.40;;;;;;;10.04;100.00;101603.97;4974216;28;20030;-71
2023/01/05 04:51:36;;;;;;;36.85;7.35;;;;;;;10.05;100.00;101611.88;4973999;28;20042;-71
2023/01/05 04:54:01;;;;;;;32.08;6.85;;;;;;;10.06;100.00;101591.09;4972724;28;20560;-71
2023/01/05 04:56:26;;;;;;;30.80;6.53;;;;;;;10.05;100.00;101603.78;4974137;28;20390;-71
2023/01/05 04:58:52;;;;;;;36.67;7.65;;;;;;;10.04;100.00;101604.81;4973164;28;20127;-70
2023/01/05 05:01:17;;;;;;;30.00;5.97;;;;;;;10.02;100.00;101606.88;4971938;28;20053;-70
2023/01/05 05:03:42;;;;;;;40.00;8.13;;;;;;;10.07;100.00;101614.38;4973866;28;20027;-70
2023/01/05 05:06:08;;;;;;;36.67;7.47;;;;;;;10.06;100.00;101612.72;4971369;28;20022;-70
2023/01/05 05:08:33;;;;;;;38.67;7.15;;;;;;;10.04;100.00;101626.47;4973692;28;20023;-70
2023/01/05 05:10:59;;;;;;;32.80;7.43;;;;;;;10.06;100.00;101624.38;4973380;28;20033;-71
2023/01/05 05:13:24;;;;;;;35.17;7.00;;;;;;;10.05;100.00;101628.09;4972145;28;20094;-71
2023/01/05 05:15:50;;;;;;;27.77;6.28;;;;;;;10.05;100.00;101625.41;4973585;28;20035;-71
2023/01/05 05:18:15;;;;;;;33.58;7.30;;;;;;;10.06;100.00;101628.97;4973836;28;20030;-71
2023/01/05 05:20:43;;;;;;;39.08;7.50;;;;;;;10.10;100.00;101622.94;4973544;28;20029;-70
2023/01/05 05:23:09;;;;;;;35.22;7.65;;;;;;;10.10;100.00;101635.63;4973780;28;20545;-71
2023/01/05 05:25:34;;;;;;;39.85;7.75;;;;;;;10.10;100.00;101636.47;4973085;28;20114;-70
2023/01/05 05:27:59;;;;;;;33.92;6.70;;;;;;;10.08;100.00;101641.25;4972438;28;20026;-71
2023/01/05 05:30:25;;;;;;;32.63;7.32;;;;;;;10.10;100.00;101652.69;4973428;28;20113;-71
2023/01/05 05:32:50;;;;;;;34.30;6.82;;;;;;;10.14;100.00;101641.47;4972127;28;20114;-71
2023/01/05 05:35:15;;;;;;;33.17;7.03;;;;;;;10.09;100.00;101644.78;4973627;28;20473;-71
2023/01/05 05:37:41;;;;;;;34.65;6.55;;;;;;;10.07;100.00;101636.88;4973373;28;20041;-71
2023/01/05 05:40:06;;;;;;;36.83;7.78;;;;;;;10.06;100.00;101643.31;4973370;28;20034;-71
2023/01/05 05:42:32;;;;;;;30.60;6.88;;;;;;;10.07;100.00;101647.69;4972549;28;20134;-71
2023/01/05 05:44:57;;;;;;;40.95;7.55;;;;;;;10.04;100.00;101648.09;4972668;28;20031;-71
2023/01/05 05:47:22;;;;;;;37.30;7.57;;;;;;;10.03;100.00;101649.13;4971958;28;20138;-71
2023/01/05 05:49:48;;;;;;;34.65;7.00;;;;;;;10.03;100.00;101659.94;4972922;28;20442;-71
2023/01/05 05:52:13;;;;;;;32.35;7.78;;;;;;;10.01;100.00;101663.88;4973518;28;20023;-71
2023/01/05 05:54:38;;;;;;;33.78;7.28;;;;;;;10.04;100.00;101652.66;4972209;28;20094;-71
2023/01/05 05:57:03;;;;;;;37.40;7.57;;;;;;;10.02;100.00;101660.97;4973607;28;20125;-71
2023/01/05 05:59:29;;;;;;;38.13;7.10;;;;;;;10.03;100.00;101668.03;4969083;28;20039;-71
2023/01/05 06:01:54;;;;;;;36.90;7.03;;;;;;;10.08;100.00;101667.44;4970884;28;20162;-71
2023/01/05 06:04:19;;;;;;;36.00;7.68;;;;;;;10.03;100.00;101670.75;4973549;28;20027;-71
2023/01/05 06:06:45;;;;;;;33.42;6.78;;;;;;;10.01;100.00;101682.78;4973341;28;20466;-70
2023/01/05 06:09:10;;;;;;;40.42;8.43;;;;;;;9.98;100.00;101694.88;4971841;28;20466;-71
2023/01/05 06:11:35;;;;;;;42.85;8.00;;;;;;;10.00;100.00;101689.25;4972094;28;20130;-71
2023/01/05 06:14:01;;;;;;;42.80;8.20;;;;;;;9.97;100.00;101698.59;4972105;28;20026;-71
2023/01/05 06:16:27;;;;;;;40.25;7.88;;;;;;;9.94;100.00;101685.47;4973302;28;20054;-71
2023/01/05 06:18:52;;;;;;;37.95;7.72;;;;;;;9.95;100.00;101687.16;4972373;28;20121;-71
2023/01/05 06:21:20;;;;;;;35.55;7.18;;;;;;;9.96;100.00;101687.97;4973243;28;20027;-71
2023/01/05 06:23:45;;;;;;;46.35;8.77;;;;;;;9.97;100.00;101695.91;4974304;28;20035;-71
2023/01/05 06:26:10;;;;;;;38.05;7.88;;;;;;;9.95;100.00;101703.38;4976371;28;20035;-71
2023/01/05 06:28:36;;;;;;;42.13;8.65;;;;;;;9.98;100.00;101702.97;4976074;28;20527;-70
2023/01/05 06:31:01;;;;;;;37.40;7.40;;;;;;;9.98;100.00;101708.38;4976795;28;20034;-70
2023/01/05 06:33:26;;;;;;;35.30;6.88;;;;;;;9.96;100.00;101702.31;4976988;28;20369;-71
2023/01/05 06:35:51;;;;;;;38.15;7.65;;;;;;;9.91;100.00;101705.63;4976154;28;20494;-71
2023/01/05 06:38:17;;;;;;;41.75;8.50;;;;;;;9.91;100.00;101710.22;4975010;28;20035;-71
2023/01/05 06:40:45;;;;;;;34.20;7.72;;;;;;;9.90;100.00;101712.09;4976564;28;20450;-71
2023/01/05 06:43:11;;;;;;;37.80;7.63;;;;;;;9.93;100.00;101722.50;4975526;28;20037;-71
2023/01/05 06:45:36;;;;;;;42.50;8.43;;;;;;;9.93;100.00;101725.22;4974838;28;20046;-71
2023/01/05 06:48:02;;;;;;;33.85;7.95;;;;;;;9.91;100.00;101731.84;4975998;28;20535;-71
2023/01/05 06:50:29;;;;;;;37.17;8.52;;;;;;;9.86;100.00;101729.75;4976401;28;20033;-71
2023/01/05 06:52:54;;;;;;;39.25;8.35;;;;;;;9.93;100.00;101733.31;4976094;28;20061;-71
2023/01/05 06:55:20;;;;;;;42.72;9.48;;;;;;;9.89;100.00;101731.22;4976292;28;20066;-71
2023/01/05 06:57:46;;;;;;;36.28;7.97;;;;;;;9.94;100.00;101739.56;4975291;28;20031;-71
2023/01/05 07:00:12;;;;;;;42.38;9.35;;;;;;;9.90;100.00;101749.09;4973938;28;20538;-71
2023/01/05 07:02:38;;;;;;;38.50;8.18;;;;;;;9.88;100.00;101748.47;4973327;28;20057;-71
2023/01/05 07:05:04;;;;;;;39.38;8.00;;;;;;;9.94;100.00;101739.56;4975921;28;20023;-71
2023/01/05 07:07:29;;;;;;;43.45;8.15;;;;;;;9.89;100.00;101737.44;4976047;28;20031;-71
2023/01/05 07:09:54;;;;;;;41.17;8.10;;;;;;;9.89;100.00;101744.72;4975827;28;20030;-71
2023/01/05 07:12:20;;;;;;;35.88;7.55;;;;;;;9.87;100.00;101739.53;4975400;28;20035;-71
2023/01/05 07:14:45;;;;;;;38.42;8.50;;;;;;;9.85;100.00;101741.56;4974701;28;20042;-71
2023/01/05 07:17:13;;;;;;;44.00;8.48;;;;;;;9.83;100.00;101740.94;4974206;28;20033;-70
2023/01/05 07:19:39;;;;;;;44.85;8.50;;;;;;;9.85;100.00;101746.16;4975106;28;20122;-71
2023/01/05 07:22:04;;;;;;;48.28;8.82;;;;;;;9.83;100.00;101745.50;4975614;28;20074;-71
2023/01/05 07:24:30;;;;;;;42.28;8.88;;;;;;;9.87;100.00;101746.78;4975779;28;20022;-71
2023/01/05 07:26:57;;;;;;;38.47;8.10;;;;;;;9.82;100.00;101741.16;4975532;28;20073;-71
2023/01/05 07:29:22;;;;;;;40.75;8.95;;;;;;;9.82;100.00;101751.97;4974723;28;20059;-71
2023/01/05 07:31:51;;;;;;;41.05;8.55;;;;;;;9.83;100.00;101767.13;4975885;28;20069;-71
2023/01/05 07:34:16;;;;;;;39.08;7.95;;;;;;;9.85;100.00;101759.69;4975691;28;20038;-71
2023/01/05 07:36:41;;;;;;;47.30;9.35;;;;;;;9.82;100.00;101765.47;4975011;28;20038;-71
2023/01/05 07:39:07;;;;;;;43.25;8.50;;;;;;;9.85;100.00;101767.78;4973611;28;20130;-71
2023/01/05 07:41:32;;;;;;;43.08;8.48;;;;;;;9.84;100.00;101776.91;4975407;28;20455;-71
2023/01/05 07:43:57;;;;;;;43.67;8.63;;;;;;;9.83;100.00;101780.66;4974303;28;20031;-71
2023/01/05 07:46:23;;;;;;;46.40;8.82;;;;;;;9.83;100.00;101775.25;4973959;28;20051;-71
2023/01/05 07:48:48;;;;;;;45.38;8.75;;;;;;;9.83;100.00;101770.69;4975162;28;20113;-72
2023/01/05 07:51:13;;;;;;;40.28;8.20;;;;;;;9.81;100.00;101780.84;4973516;28;20037;-72
2023/01/05 07:53:39;;;;;;;38.92;8.23;;;;;;;9.84;100.00;101776.91;4975654;28;20023;-72
2023/01/05 07:56:05;;;;;;;49.83;9.38;;;;;;;9.80;100.00;101776.50;4975346;28;20386;-71
2023/01/05 07:58:31;;;;;;;40.90;9.25;;;;;;;9.83;100.00;101781.50;4974422;28;20034;-72
2023/01/05 08:01:02;;;;;;;38.33;8.77;;;;;;;9.82;100.00;101785.22;4971886;28;20530;-72
2023/01/05 08:03:27;;;;;;;36.67;8.20;;;;;;;9.82;100.00;101779.00;4974538;28;20466;-71
2023/01/05 08:05:53;;;;;;;47.38;9.00;;;;;;;9.76;100.00;101789.53;4971244;28;20027;-72
2023/01/05 08:08:18;;;;;;;45.05;8.68;;;;;;;9.80;100.00;101798.13;4974518;28;20031;-71
2023/01/05 08:10:43;;;;;;;46.25;8.55;;;;;;;9.80;100.00;101800.81;4972572;28;20050;-73
2023/01/05 08:15:55;;;;;;;45.55;8.50;;;;;;;9.83;100.00;101803.13;4974608;28;20076;-71
2023/01/05 08:18:22;;;;;;;37.83;8.18;;;;;;;9.83;100.00;101804.97;4974495;28;20034;-71
2023/01/05 08:21:03;;;;;;;39.55;8.32;;;;;;;9.79;100.00;101796.44;4974725;28;20479;-71
2023/01/05 08:23:30;;;;;;;38.97;8.45;;;;;;;9.80;100.00;101813.47;4974816;28;20031;-72
2023/01/05 08:25:56;;;;;;;47.00;9.32;;;;;;;9.81;100.00;101809.75;4973485;28;20030;-74
2023/01/05 08:28:25;;;;;;;44.20;8.25;;;;;;;9.79;100.00;101809.13;4973293;28;20443;-73
2023/01/05 08:30:50;;;;;;;41.50;8.85;;;;;;;9.80;100.00;101816.19;4973515;28;20081;-73
2023/01/05 08:33:15;;;;;;;42.88;9.30;;;;;;;9.80;100.00;101818.88;4973160;28;20030;-73
2023/01/05 08:35:43;;;;;;;41.50;8.32;;;;;;;9.80;100.00;101819.75;4974766;28;20542;-72
2023/01/05 08:38:09;;;;;;;44.08;8.82;;;;;;;9.84;100.00;101826.41;4974505;28;20459;-73
2023/01/05 08:40:36;;;;;;;40.58;8.80;;;;;;;9.85;100.00;101816.44;4974683;28;20042;-71
2023/01/05 08:43:01;;;;;;;40.92;8.02;;;;;;;9.82;100.00;101833.06;4972302;28;20038;-75
2023/01/05 08:45:27;;;;;;;36.88;8.00;;;;;;;9.80;100.00;101827.00;4974330;28;20465;-72
2023/01/05 08:47:52;;;;;;;44.90;8.60;;;;;;;9.81;100.00;101843.00;4973574;28;20109;-71
2023/01/05 08:50:17;;;;;;;41.42;9.15;;;;;;;9.79;100.00;101844.25;4971348;28;20459;-72
2023/01/05 08:52:43;;;;;;;40.38;8.93;;;;;;;9.79;100.00;101855.06;4969261;28;20041;-72
2023/01/05 08:55:08;;;;;;;42.05;8.45;;;;;;;9.82;100.00;101857.38;4969366;28;20591;-76
2023/01/05 08:57:34;;;;;;;42.88;8.75;;;;;;;9.82;100.00;101852.81;4973023;28;20395;-73
2023/01/05 08:59:59;;;;;;;45.78;8.85;;;;;;;9.83;100.00;101856.34;4961514;28;20034;-73
2023/01/05 09:02:25;;;;;;;47.15;8.55;;;;;;;9.87;100.00;101850.38;4967286;28;20039;-72
2023/01/05 09:04:50;;;;;;;46.15;8.65;;;;;;;9.83;100.00;101859.91;4954966;28;20031;-73
2023/01/05 09:07:16;;;;;;;44.63;8.55;;;;;;;9.84;100.00;101853.44;4954564;28;20938;-73
2023/01/05 09:09:41;;;;;;;44.00;8.25;;;;;;;9.85;100.00;101862.41;4954682;28;20490;-72
2023/01/05 09:12:07;;;;;;;44.30;8.93;;;;;;;9.87;100.00;101869.28;4954685;28;20119;-71
2023/01/05 09:14:32;;;;;;;55.42;10.30;;;;;;;9.90;100.00;101868.03;4954476;28;20035;-72
2023/01/05 09:16:57;;;;;;;42.45;8.30;;;;;;;9.89;100.00;101866.41;4954098;29;20110;-71
2023/01/05 09:19:23;;;;;;;44.15;8.70;;;;;;;9.90;100.00;101862.63;4954422;28;20116;-73
2023/01/05 09:21:48;;;;;;;43.88;9.10;;;;;;;9.89;100.00;101861.81;4954480;28;20452;-74
2023/01/05 09:24:14;;;;;;;42.17;8.43;;;;;;;9.91;100.00;101870.56;4969212;28;20024;-72
2023/01/05 09:26:40;;;;;;;48.58;10.00;;;;;;;9.91;100.00;101869.72;4954563;28;20031;-74
2023/01/05 09:29:05;;;;;;;42.15;9.48;;;;;;;9.93;100.00;101884.75;4953908;28;20035;-72
2023/01/05 09:31:30;;;;;;;53.00;10.23;;;;;;;9.93;100.00;101886.59;4954390;28;20090;-73
2023/01/05 09:33:57;;;;;;;47.08;8.93;;;;;;;9.93;100.00;101886.59;4954415;28;20093;-73
2023/01/05 09:36:23;;;;;;;41.60;8.50;;;;;;;9.91;100.00;101888.66;4954196;28;20441;-73
2023/01/05 09:38:49;;;;;;;42.13;8.65;;;;;;;9.93;100.00;101903.66;4954394;28;20038;-74
2023/01/05 09:41:26;;;;;;;48.10;8.82;;;;;;;9.99;100.00;101896.63;4952852;28;20031;-73
2023/01/05 09:43:56;;;;;;;44.65;8.38;;;;;;;9.93;100.00;101898.25;4954310;28;20640;-73
2023/01/05 09:46:31;;;;;;;42.22;8.88;;;;;;;9.97;100.00;101895.97;4954002;28;20050;-74
2023/01/05 09:48:59;;;;;;;50.88;9.13;;;;;;;9.94;100.00;101904.50;4954655;28;20378;-73
2023/01/05 09:51:25;;;;;;;48.50;10.30;;;;;;;9.97;100.00;101903.28;4954369;28;20114;-72
2023/01/05 09:53:51;;;;;;;39.75;8.70;;;;;;;9.97;100.00;101895.97;4954227;28;20043;-73
2023/01/05 09:56:29;;;;;;;40.22;8.75;;;;;;;10.00;100.00;101906.41;4954004;28;20031;-72
2023/01/05 09:59:35;;;;;;;43.78;9.23;;;;;;;10.01;100.00;101920.75;4955647;28;20047;-72
2023/01/05 10:02:16;;;;;;;44.38;8.85;;;;;;;9.99;100.00;101907.44;4955417;28;20074;-73
2023/01/05 10:04:41;;;;;;;40.47;8.23;;;;;;;10.01;100.00;101915.34;4957947;28;20034;-73
2023/01/05 10:07:18;;;;;;;46.80;9.05;;;;;;;9.94;100.00;101913.44;4957730;28;20039;-73
2023/01/05 10:09:46;;;;;;;43.55;9.27;;;;;;;9.94;100.00;101923.41;4957890;28;20038;-74
2023/01/05 10:15:12;;;;;;;46.38;8.55;;;;;;;9.95;100.00;101925.09;4957601;29;20047;-73
2023/01/05 10:17:38;;;;;;;41.20;8.38;;;;;;;9.98;100.00;101929.25;4957725;28;20493;-74
2023/01/05 10:20:32;;;;;;;47.05;9.13;;;;;;;9.99;100.00;101920.94;4957456;28;20463;-73
2023/01/05 10:23:10;;;;;;;46.05;10.05;;;;;;;9.99;100.00;101917.41;4958485;28;20034;-73
2023/01/05 10:25:44;;;;;;;49.53;9.10;;;;;;;9.99;100.00;101928.22;4960419;28;20039;-72
2023/01/05 10:28:24;;;;;;;40.80;8.95;;;;;;;10.02;100.00;101936.78;4959194;28;20035;-73
2023/01/05 10:31:00;;;;;;;42.20;8.57;;;;;;;10.04;100.00;101933.88;4957232;28;20031;-73
2023/01/05 10:33:52;;;;;;;47.90;8.43;;;;;;;10.11;100.00;101937.50;4957299;28;20098;-73
2023/01/05 10:36:30;;;;;;;48.20;9.70;;;;;;;10.11;100.00;101937.50;4957189;28;20083;-72
2023/01/05 10:39:20;;;;;;;41.97;8.15;;;;;;;10.13;100.00;101927.34;4957464;28;20031;-74
2023/01/05 10:42:04;;;;;;;43.97;8.15;;;;;;;10.13;100.00;101935.44;4972303;28;20126;-72
2023/01/05 10:44:54;;;;;;;44.20;8.82;;;;;;;10.11;100.00;101935.63;4957057;28;20035;-72
2023/01/05 10:47:21;;;;;;;43.80;9.82;;;;;;;10.09;100.00;101936.84;4957118;28;20403;-73
2023/01/05 10:49:46;;;;;;;46.83;8.57;;;;;;;10.09;100.00;101932.28;4957150;28;20045;-71
2023/01/05 10:52:16;;;;;;;45.13;9.40;;;;;;;10.08;100.00;101936.03;4955688;28;20023;-72
2023/01/05 10:55:01;;;;;;;46.10;9.25;;;;;;;10.15;100.00;101938.78;4957092;28;20357;-72
2023/01/05 10:57:32;;;;;;;45.47;8.98;;;;;;;10.09;100.00;101937.69;4956645;28;20046;-73
2023/01/05 11:00:00;;;;;;;48.13;10.27;;;;;;;10.10;100.00;101941.25;4956842;28;20401;-72
2023/01/05 11:02:34;;;;;;;50.63;9.13;;;;;;;10.14;100.00;101947.09;4968897;28;20437;-72
2023/01/05 11:05:02;;;;;;;40.22;8.25;;;;;;;10.14;100.00;101947.09;4956830;28;20533;-72
2023/01/05 11:07:27;;;;;;;46.88;9.07;;;;;;;10.11;100.00;101957.28;4956581;28;20538;-72
2023/01/05 11:09:53;;;;;;;42.40;8.90;;;;;;;10.13;100.00;101940.00;4955883;28;20031;-72
2023/01/05 11:12:21;;;;;;;44.70;9.68;;;;;;;10.14;100.00;101947.09;4955984;28;20039;-72
2023/01/05 11:14:53;;;;;;;42.03;9.45;;;;;;;10.19;100.00;101944.63;4956733;28;20049;-72
2023/01/05 11:17:25;;;;;;;43.40;9.18;;;;;;;10.21;100.00;101948.00;4956474;28;20028;-71
2023/01/05 11:19:52;;;;;;;46.67;9.88;;;;;;;10.22;100.00;101950.50;4956661;28;20067;-72
2023/01/05 11:22:33;;;;;;;50.35;10.32;;;;;;;10.21;100.00;101948.00;4956367;28;20118;-72
2023/01/05 11:25:34;;;;;;;42.88;8.55;;;;;;;10.25;100.00;101946.53;4956563;28;20476;-72
2023/01/05 11:28:15;;;;;;;38.28;9.45;;;;;;;10.27;100.00;101941.78;4934707;29;20075;-74
2023/01/05 11:30:58;;;;;;;40.88;8.68;;;;;;;10.21;100.00;101945.28;4953913;28;20047;-73
2023/01/05 11:33:27;;;;;;;42.38;8.73;;;;;;;10.19;100.00;101940.06;4956377;28;20074;-72
2023/01/05 11:35:53;;;;;;;39.00;9.00;;;;;;;10.18;100.00;101932.97;4956352;28;20034;-72
2023/01/05 11:38:26;;;;;;;45.50;10.52;;;;;;;10.22;100.00;101936.13;4955803;28;20031;-72
2023/01/05 11:40:51;;;;;;;41.70;8.98;;;;;;;10.26;100.00;101934.69;4956248;28;20030;-71
2023/01/05 11:43:20;;;;;;;41.05;9.50;;;;;;;10.26;100.00;101926.59;4955954;28;20031;-72
2023/01/05 11:45:52;;;;;;;43.45;9.60;;;;;;;10.26;100.00;101932.81;4956040;28;20384;-72
2023/01/05 11:48:31;;;;;;;39.70;9.13;;;;;;;10.31;100.00;101923.28;4955785;28;20531;-73
2023/01/05 11:50:57;;;;;;;37.50;9.07;;;;;;;10.29;100.00;101926.19;4956139;28;20052;-71
2023/01/05 11:53:37;;;;;;;42.72;8.82;;;;;;;10.30;100.00;101927.88;4955763;28;20034;-73
2023/01/05 11:56:20;;;;;;;42.35;9.30;;;;;;;10.30;100.00;101922.47;4956270;28;20028;-72